Westfield, New York
Current Conditions -  °F | °C
As of 4:53 AM on Saturday 22 Nov 2014 (Local Time) from KDKK Reporting Station
Clear Clear  
Wind Chill:   Ceiling: Unl
Heat Index: 23°   Visibility: 10mi
Dew Point:   Wind: 18mph
Humidity: 55%   Direction: 190°S
Pressure: 30.29"   Gusts: 30mph
Location:  42.32°N, 79.58°W
Report Text: KDKK 220953Z AUTO 19016G26KT 10SM CLR M05/M13 A3029 RMK AO2 PK WND 19026/0953 SLP267 T10501128
Loading
Personal Weather Stations






























Interactive Weather Map New forecast layout! Learn more

10-Day Weather Forecast

Advertisements
Track Severe Weather on mobile